createdAt,value
2018-09-01T00:01:05.551Z,39.61
2018-09-01T00:03:32.316Z,39.43
2018-09-01T00:05:59.005Z,39.54
2018-09-01T00:08:25.683Z,39.56
2018-09-01T00:10:52.380Z,39.51
2018-09-01T00:13:20.425Z,39.43
2018-09-01T00:15:45.666Z,39.60
2018-09-01T00:18:12.457Z,39.52
2018-09-01T00:20:39.072Z,39.57
2018-09-01T00:23:05.730Z,39.55
2018-09-01T00:25:34.486Z,39.55
2018-09-01T00:27:59.150Z,39.54
2018-09-01T00:30:25.859Z,39.54
2018-09-01T00:32:52.517Z,39.56
2018-09-01T00:35:19.276Z,39.61
2018-09-01T00:37:46.029Z,39.55
2018-09-01T00:40:12.684Z,39.67
2018-09-01T00:42:40.415Z,39.58
2018-09-01T00:45:07.069Z,39.72
2018-09-01T00:47:33.749Z,39.68
2018-09-01T00:50:00.499Z,39.57
2018-09-01T00:52:27.124Z,39.77
2018-09-01T00:54:53.772Z,39.74
2018-09-01T00:57:20.437Z,39.88
2018-09-01T00:59:50.451Z,39.75
2018-09-01T01:02:17.121Z,39.81
2018-09-01T01:04:43.771Z,39.96
2018-09-01T01:07:10.548Z,39.91
2018-09-01T01:09:37.290Z,39.88
2018-09-01T01:12:03.990Z,40.00
2018-09-01T01:14:30.607Z,39.89
2018-09-01T01:16:57.314Z,40.00
2018-09-01T01:19:23.972Z,39.98
2018-09-01T01:21:50.626Z,39.99
2018-09-01T01:24:17.322Z,40.06
2018-09-01T01:26:45.166Z,40.12
2018-09-01T01:29:10.689Z,40.07
2018-09-01T01:31:37.440Z,40.10
2018-09-01T01:34:04.065Z,40.21
2018-09-01T01:36:30.749Z,40.22
2018-09-01T01:38:57.428Z,40.23
2018-09-01T01:41:26.219Z,40.24
2018-09-01T01:43:50.888Z,40.26
2018-09-01T01:46:17.522Z,40.26
2018-09-01T01:48:44.231Z,40.23
2018-09-01T01:51:10.932Z,40.36
2018-09-01T01:53:37.584Z,40.31
2018-09-01T01:56:04.269Z,40.49
2018-09-01T01:58:30.984Z,40.33
2018-09-01T02:00:57.654Z,40.29
2018-09-01T02:03:24.469Z,40.42
2018-09-01T02:05:51.130Z,40.43
2018-09-01T02:08:17.802Z,40.52
2018-09-01T02:10:44.467Z,40.42
2018-09-01T02:13:11.141Z,40.42
2018-09-01T02:15:37.797Z,40.46
2018-09-01T02:18:04.474Z,40.44
2018-09-01T02:20:31.133Z,40.53
2018-09-01T02:22:57.887Z,40.61
2018-09-01T02:25:24.633Z,40.66
2018-09-01T02:27:51.288Z,40.57
2018-09-01T02:30:18.037Z,40.64
2018-09-01T02:32:44.713Z,40.65
2018-09-01T02:35:11.404Z,40.61
2018-09-01T02:37:38.078Z,40.61
2018-09-01T02:40:06.162Z,40.59
2018-09-01T02:42:31.433Z,40.67
2018-09-01T02:44:58.129Z,40.66
2018-09-01T02:47:24.839Z,40.70
2018-09-01T02:49:51.600Z,40.73
2018-09-01T02:52:18.261Z,40.71
2018-09-01T02:54:44.919Z,40.67
2018-09-01T02:57:11.593Z,40.66
2018-09-01T02:59:38.280Z,40.66
2018-09-01T03:02:04.932Z,40.68
2018-09-01T03:04:31.698Z,40.73
2018-09-01T03:07:00.994Z,40.75
2018-09-01T03:09:27.668Z,40.75
2018-09-01T03:11:54.331Z,40.69
2018-09-01T03:14:21.051Z,40.74
2018-09-01T03:16:47.839Z,40.79
2018-09-01T03:19:14.470Z,40.74
2018-09-01T03:21:41.218Z,40.79
2018-09-01T03:24:07.883Z,40.81
2018-09-01T03:26:34.554Z,40.84
2018-09-01T03:29:01.213Z,40.83
2018-09-01T03:31:27.920Z,40.83
2018-09-01T03:33:54.576Z,40.89
2018-09-01T03:36:21.272Z,40.88
2018-09-01T03:38:47.934Z,40.85
2018-09-01T03:41:14.636Z,40.81
2018-09-01T03:43:41.265Z,40.93
2018-09-01T03:46:13.169Z,40.87
2018-09-01T03:48:37.402Z,41.06
2018-09-01T03:51:04.100Z,41.01
2018-09-01T03:53:30.888Z,41.10
2018-09-01T03:55:57.572Z,41.07
2018-09-01T03:58:24.228Z,41.05
2018-09-01T04:00:50.898Z,41.00
2018-09-01T04:03:17.560Z,40.93
2018-09-01T04:05:44.225Z,41.06
2018-09-01T04:08:10.880Z,41.05
2018-09-01T04:10:37.619Z,41.03
2018-09-01T04:13:04.257Z,41.13
2018-09-01T04:15:30.910Z,40.93
2018-09-01T04:17:57.566Z,40.81
2018-09-01T04:20:26.707Z,40.96
2018-09-01T04:22:54.693Z,41.04
2018-09-01T04:25:23.259Z,40.96
2018-09-01T04:27:49.942Z,41.09
2018-09-01T04:30:16.617Z,40.97
2018-09-01T04:32:43.323Z,41.12
2018-09-01T04:35:09.950Z,41.03
2018-09-01T04:37:36.605Z,40.97
2018-09-01T04:40:03.243Z,40.86
2018-09-01T04:42:30.419Z,40.79
2018-09-01T04:44:57.052Z,40.78
2018-09-01T04:47:23.821Z,40.73
2018-09-01T04:49:50.497Z,40.76
2018-09-01T04:52:17.154Z,40.77
2018-09-01T04:54:43.905Z,40.84
2018-09-01T04:57:10.576Z,40.77
2018-09-01T04:59:37.224Z,40.86
2018-09-01T05:02:03.951Z,40.68
2018-09-01T05:04:30.689Z,40.51
2018-09-01T05:06:57.331Z,40.38
2018-09-01T05:09:24.019Z,40.23
2018-09-01T05:11:50.660Z,40.19
2018-09-01T05:14:17.295Z,40.15
2018-09-01T05:16:43.947Z,40.05
2018-09-01T05:19:11.723Z,40.05
2018-09-01T05:21:37.359Z,39.90
2018-09-01T05:24:04.077Z,39.86
2018-09-01T05:26:30.656Z,39.81
2018-09-01T05:28:57.301Z,39.72
2018-09-01T05:31:24.029Z,39.71
2018-09-01T05:33:50.693Z,39.67
2018-09-01T05:36:17.361Z,39.64
2018-09-01T05:38:44.036Z,39.45
2018-09-01T05:41:10.671Z,39.37
2018-09-01T05:43:37.430Z,39.34
2018-09-01T05:46:04.036Z,38.87
2018-09-01T05:48:30.730Z,39.63
2018-09-01T05:50:57.400Z,39.39
2018-09-01T05:53:24.051Z,39.59
2018-09-01T05:55:50.703Z,39.46
2018-09-01T05:58:17.356Z,39.49
2018-09-01T06:00:44.022Z,38.54
2018-09-01T06:03:13.656Z,39.21
2018-09-01T06:05:40.329Z,39.26
2018-09-01T06:08:07.029Z,39.38
2018-09-01T06:10:33.701Z,39.45
2018-09-01T06:13:00.387Z,39.63
2018-09-01T06:15:27.039Z,39.54
2018-09-01T06:17:54.854Z,40.00
2018-09-01T06:20:21.521Z,40.12
2018-09-01T06:22:51.644Z,39.99
2018-09-01T06:25:18.327Z,39.81
2018-09-01T06:27:45.074Z,39.71
2018-09-01T06:30:11.851Z,39.70
2018-09-01T06:32:38.491Z,39.53
2018-09-01T06:35:08.055Z,39.70
2018-09-01T06:37:34.867Z,39.61
2018-09-01T06:40:01.451Z,39.54
2018-09-01T06:42:28.210Z,39.47
2018-09-01T06:44:54.909Z,39.39
2018-09-01T06:47:21.553Z,39.48
2018-09-01T06:49:48.192Z,39.44
2018-09-01T06:52:14.923Z,38.45
2018-09-01T06:54:41.662Z,39.78
2018-09-01T06:57:11.717Z,39.73
2018-09-01T06:59:38.361Z,39.72
2018-09-01T07:02:07.998Z,39.64
2018-09-01T07:04:37.614Z,39.78
2018-09-01T07:07:04.247Z,39.66
2018-09-01T07:09:30.913Z,39.50
2018-09-01T07:11:57.652Z,39.51
2018-09-01T07:14:24.343Z,40.11
2018-09-01T07:16:51.002Z,40.39
2018-09-01T07:19:17.698Z,40.98
2018-09-01T07:21:44.341Z,40.47
2018-09-01T07:24:11.150Z,40.21
2018-09-01T07:26:37.822Z,39.94
2018-09-01T07:29:05.395Z,39.55
2018-09-01T07:31:32.423Z,39.70
2018-09-01T07:34:01.807Z,39.49
2018-09-01T07:36:28.488Z,38.77
2018-09-01T07:38:55.136Z,40.03
2018-09-01T07:41:21.874Z,40.55
2018-09-01T07:43:48.612Z,40.50
2018-09-01T07:46:15.330Z,39.99
2018-09-01T07:48:41.987Z,39.91
2018-09-01T07:51:11.390Z,39.58
2018-09-01T07:53:36.381Z,39.81
2018-09-01T07:56:03.090Z,40.23
2018-09-01T07:58:29.804Z,40.85
2018-09-01T08:00:56.529Z,40.28
2018-09-01T08:03:23.267Z,40.19
2018-09-01T08:05:49.884Z,39.99
2018-09-01T08:08:16.663Z,39.72
2018-09-01T08:10:46.677Z,39.77
2018-09-01T08:13:13.547Z,40.22
2018-09-01T08:15:40.196Z,41.02
2018-09-01T08:18:06.844Z,40.32
2018-09-01T08:20:33.512Z,40.03
2018-09-01T08:23:00.166Z,39.79
2018-09-01T08:25:27.711Z,39.53
2018-09-01T08:27:54.377Z,39.30
2018-09-01T08:30:24.338Z,39.23
2018-09-01T08:32:50.966Z,39.07
2018-09-01T08:35:19.573Z,39.52
2018-09-01T08:37:46.262Z,38.69
2018-09-01T08:40:10.991Z,38.90
2018-09-01T08:42:37.673Z,38.52
2018-09-01T08:45:04.368Z,39.24
2018-09-01T08:47:31.008Z,40.03
2018-09-01T08:49:57.637Z,39.91
2018-09-01T08:52:24.328Z,40.15
2018-09-01T08:54:51.067Z,39.90
2018-09-01T08:57:17.752Z,40.23
2018-09-01T08:59:44.398Z,40.16
2018-09-01T09:02:11.078Z,39.48
2018-09-01T09:04:37.727Z,39.81
2018-09-01T09:07:04.413Z,39.01
2018-09-01T09:09:31.105Z,39.54
2018-09-01T09:11:57.743Z,39.08
2018-09-01T09:14:24.441Z,39.08
2018-09-01T09:16:51.181Z,39.16
2018-09-01T09:19:17.838Z,39.03
2018-09-01T09:21:44.474Z,39.24
2018-09-01T09:24:11.170Z,38.66
2018-09-01T09:26:37.814Z,38.58
2018-09-01T09:29:04.508Z,38.36
2018-09-01T09:31:31.146Z,38.19
2018-09-01T09:33:58.178Z,38.32
2018-09-01T09:36:24.871Z,38.06
2018-09-01T09:38:51.522Z,37.45
2018-09-01T09:41:18.160Z,37.82
2018-09-01T09:43:44.988Z,37.44
2018-09-01T09:46:11.624Z,37.13
2018-09-01T09:48:38.258Z,37.37
2018-09-01T09:51:04.897Z,36.78
2018-09-01T09:53:31.564Z,36.97
2018-09-01T09:55:58.274Z,36.81
2018-09-01T09:58:25.020Z,36.27
2018-09-01T10:00:51.654Z,36.72
2018-09-01T10:03:18.318Z,36.26
2018-09-01T10:05:47.449Z,36.00
2018-09-01T10:08:13.948Z,36.17
2018-09-01T10:10:40.694Z,36.20
2018-09-01T10:13:08.635Z,35.85
2018-09-01T10:15:35.324Z,36.02
2018-09-01T10:18:00.628Z,35.79
2018-09-01T10:20:27.503Z,35.47
2018-09-01T10:22:54.118Z,35.50
2018-09-01T10:25:23.443Z,35.49
2018-09-01T10:27:50.153Z,35.74
2018-09-01T10:30:16.794Z,35.27
2018-09-01T10:32:43.442Z,35.47
2018-09-01T10:35:10.146Z,35.55
2018-09-01T10:37:36.803Z,35.41
2018-09-01T10:40:05.568Z,35.66
2018-09-01T10:42:32.288Z,35.45
2018-09-01T10:44:58.937Z,35.01
2018-09-01T10:47:25.574Z,35.38
2018-09-01T10:49:52.215Z,35.17
2018-09-01T10:52:18.958Z,35.24
2018-09-01T10:54:45.695Z,35.14
2018-09-01T10:57:12.342Z,34.81
2018-09-01T10:59:42.200Z,35.22
2018-09-01T11:02:08.746Z,34.83
2018-09-01T11:04:35.447Z,34.82
2018-09-01T11:07:02.086Z,35.13
2018-09-01T11:09:28.826Z,34.74
2018-09-01T11:11:55.463Z,34.96
2018-09-01T11:14:22.236Z,34.97
2018-09-01T11:16:48.851Z,34.48
2018-09-01T11:19:15.490Z,34.92
2018-09-01T11:21:42.172Z,34.55
2018-09-01T11:24:08.840Z,34.72
2018-09-01T11:26:35.508Z,34.70
2018-09-01T11:29:02.185Z,34.33
2018-09-01T11:31:28.855Z,34.63
2018-09-01T11:33:55.552Z,33.81
2018-09-01T11:36:22.203Z,34.07
2018-09-01T11:38:48.940Z,34.12
2018-09-01T11:41:15.552Z,34.11
2018-09-01T11:43:42.192Z,33.82
2018-09-01T11:46:08.934Z,34.03
2018-09-01T11:48:35.614Z,33.68
2018-09-01T11:51:02.256Z,34.16
2018-09-01T11:53:28.992Z,33.69
2018-09-01T11:55:55.630Z,33.84
2018-09-01T11:58:22.288Z,33.60
2018-09-01T12:00:49.061Z,33.13
2018-09-01T12:03:15.708Z,33.16
2018-09-01T12:05:42.342Z,33.41
2018-09-01T12:08:08.999Z,33.20
2018-09-01T12:10:35.665Z,33.33
2018-09-01T12:13:02.277Z,33.38
2018-09-01T12:15:28.926Z,32.89
2018-09-01T12:17:55.613Z,33.73
2018-09-01T12:20:23.625Z,34.77
2018-09-01T12:22:48.910Z,34.65
2018-09-01T12:25:15.551Z,34.56
2018-09-01T12:27:42.323Z,33.96
2018-09-01T12:30:09.092Z,33.96
2018-09-01T12:32:35.706Z,34.11
2018-09-01T12:35:02.386Z,34.13
2018-09-01T12:37:29.022Z,34.01
2018-09-01T12:39:58.238Z,33.77
2018-09-01T12:42:24.845Z,33.44
2018-09-01T12:44:51.537Z,33.73
2018-09-01T12:47:18.182Z,33.59
2018-09-01T12:49:44.822Z,33.98
2018-09-01T12:52:11.560Z,33.54
2018-09-01T12:54:38.265Z,33.38
2018-09-01T12:57:04.837Z,33.64
2018-09-01T12:59:31.487Z,33.07
2018-09-01T13:01:58.152Z,33.10
2018-09-01T13:04:24.849Z,33.56
2018-09-01T13:06:51.491Z,33.23
2018-09-01T13:09:18.142Z,32.99
2018-09-01T13:11:44.895Z,33.24
2018-09-01T13:14:11.517Z,33.22
2018-09-01T13:16:38.205Z,33.12
2018-09-01T13:19:04.912Z,33.35
2018-09-01T13:21:34.540Z,32.98
2018-09-01T13:24:01.198Z,32.95
2018-09-01T13:26:27.833Z,33.23
2018-09-01T13:28:54.487Z,32.89
2018-09-01T13:31:21.137Z,32.82
2018-09-01T13:33:47.776Z,32.47
2018-09-01T13:36:14.413Z,32.90
2018-09-01T13:38:41.151Z,32.92
2018-09-01T13:41:07.842Z,32.55
2018-09-01T13:43:34.562Z,33.20
2018-09-01T13:46:01.249Z,32.61
2018-09-01T13:48:27.840Z,32.63
2018-09-01T13:50:54.577Z,33.07
2018-09-01T13:53:21.191Z,32.89
2018-09-01T13:55:47.895Z,33.08
2018-09-01T13:58:15.336Z,32.77
2018-09-01T14:00:41.969Z,32.50
2018-09-01T14:03:08.618Z,32.81
2018-09-01T14:05:35.257Z,32.43
2018-09-01T14:08:01.916Z,32.18
2018-09-01T14:10:28.569Z,32.32
2018-09-01T14:12:55.211Z,32.69
2018-09-01T14:15:21.857Z,32.69
2018-09-01T14:17:48.568Z,32.52
2018-09-01T14:20:17.853Z,32.52
2018-09-01T14:22:48.876Z,32.68
2018-09-01T14:25:15.530Z,32.78
2018-09-01T14:27:45.346Z,32.71
2018-09-01T14:30:12.044Z,32.94
2018-09-01T14:32:38.785Z,32.55
2018-09-01T14:35:05.459Z,32.53
2018-09-01T14:37:32.230Z,32.42
2018-09-01T14:40:00.235Z,32.71
2018-09-01T14:42:27.470Z,32.61
2018-09-01T14:44:52.248Z,32.80
2018-09-01T14:47:18.960Z,32.60
2018-09-01T14:49:45.682Z,32.56
2018-09-01T14:52:13.391Z,32.85
2018-09-01T14:54:42.926Z,32.73
2018-09-01T14:57:09.664Z,33.04
2018-09-01T14:59:36.327Z,33.17
2018-09-01T15:02:03.015Z,32.99
2018-09-01T15:04:29.660Z,33.17
2018-09-01T15:06:56.347Z,33.33
2018-09-01T15:09:22.985Z,33.33
2018-09-01T15:11:49.631Z,33.64
2018-09-01T15:14:16.271Z,33.71
2018-09-01T15:16:42.923Z,34.14
2018-09-01T15:19:09.604Z,33.71
2018-09-01T15:21:36.250Z,34.29
2018-09-01T15:24:02.895Z,33.93
2018-09-01T15:26:29.539Z,33.89
2018-09-01T15:28:56.222Z,33.96
2018-09-01T15:31:22.919Z,34.14
2018-09-01T15:33:49.558Z,34.16
2018-09-01T15:36:16.208Z,34.64
2018-09-01T15:38:42.861Z,34.17
2018-09-01T15:41:09.589Z,34.73
2018-09-01T15:43:36.239Z,34.46
2018-09-01T15:46:02.904Z,34.67
2018-09-01T15:48:29.550Z,35.01
2018-09-01T15:50:56.196Z,34.54
2018-09-01T15:53:22.863Z,34.68
2018-09-01T15:55:49.497Z,34.76
2018-09-01T15:58:16.180Z,34.89
2018-09-01T16:00:42.817Z,35.04
2018-09-01T16:03:11.079Z,34.98
2018-09-01T16:05:36.109Z,34.81
2018-09-01T16:08:02.745Z,34.88
2018-09-01T16:10:29.441Z,34.94
2018-09-01T16:12:56.080Z,36.11
2018-09-01T16:15:22.751Z,36.35
2018-09-01T16:17:49.438Z,36.64
2018-09-01T16:20:16.084Z,36.62
2018-09-01T16:22:42.747Z,36.95
2018-09-01T16:25:09.786Z,36.71
2018-09-01T16:27:36.502Z,37.13
2018-09-01T16:30:03.137Z,37.13
2018-09-01T16:32:29.781Z,37.16
2018-09-01T16:34:56.420Z,36.99
2018-09-01T16:37:23.057Z,37.00
2018-09-01T16:39:49.749Z,37.22
2018-09-01T16:42:16.420Z,37.31
2018-09-01T16:44:43.062Z,37.43
2018-09-01T16:47:09.788Z,37.47
2018-09-01T16:49:36.523Z,37.59
2018-09-01T16:52:03.285Z,37.69
2018-09-01T16:54:31.824Z,37.71
2018-09-01T16:56:56.503Z,37.87
2018-09-01T16:59:23.243Z,37.99
2018-09-01T17:01:49.920Z,38.19
2018-09-01T17:04:20.067Z,38.34
2018-09-01T17:06:46.677Z,38.37
2018-09-01T17:09:13.427Z,38.32
2018-09-01T17:11:40.059Z,38.23
2018-09-01T17:14:06.693Z,39.23
2018-09-01T17:16:33.380Z,39.40
2018-09-01T17:19:00.016Z,39.48
2018-09-01T17:21:26.701Z,40.07
2018-09-01T17:23:53.480Z,40.85
2018-09-01T17:26:20.127Z,40.73
2018-09-01T17:28:46.824Z,41.04
2018-09-01T17:31:13.468Z,40.80
2018-09-01T17:33:40.200Z,40.67
2018-09-01T17:36:06.933Z,40.30
2018-09-01T17:38:33.708Z,40.29
2018-09-01T17:41:00.385Z,40.14
2018-09-01T17:43:27.110Z,40.05
2018-09-01T17:45:54.935Z,40.11
2018-09-01T17:48:20.407Z,39.85
2018-09-01T17:50:47.066Z,39.86
2018-09-01T17:53:13.842Z,39.86
2018-09-01T17:55:40.533Z,39.88
2018-09-01T17:58:09.423Z,39.86
2018-09-01T18:00:36.074Z,39.81
2018-09-01T18:03:02.832Z,39.89
2018-09-01T18:05:29.506Z,39.95
2018-09-01T18:07:56.306Z,40.00
2018-09-01T18:10:22.954Z,39.91
2018-09-01T18:12:49.669Z,40.07
2018-09-01T18:15:16.410Z,40.00
2018-09-01T18:17:43.025Z,40.01
2018-09-01T18:20:09.753Z,40.10
2018-09-01T18:22:36.405Z,40.37
2018-09-01T18:25:03.069Z,40.30
2018-09-01T18:27:33.140Z,40.34
2018-09-01T18:29:59.814Z,40.25
2018-09-01T18:32:26.500Z,40.40
2018-09-01T18:34:53.155Z,40.38
2018-09-01T18:37:19.847Z,40.36
2018-09-01T18:39:46.486Z,40.59
2018-09-01T18:42:13.190Z,40.50
2018-09-01T18:44:41.124Z,40.59
2018-09-01T18:47:06.589Z,40.55
2018-09-01T18:49:33.284Z,40.67
2018-09-01T18:52:00.015Z,40.69
2018-09-01T18:54:26.665Z,40.65
2018-09-01T18:56:54.610Z,40.63
2018-09-01T18:59:19.914Z,40.71
2018-09-01T19:01:46.654Z,40.76
2018-09-01T19:04:13.354Z,40.71
2018-09-01T19:06:40.140Z,40.68
2018-09-01T19:09:06.794Z,40.85
2018-09-01T19:11:33.450Z,40.67
2018-09-01T19:14:02.786Z,40.87
2018-09-01T19:16:29.550Z,40.68
2018-09-01T19:18:58.936Z,40.69
2018-09-01T19:21:25.604Z,40.70
2018-09-01T19:23:52.273Z,40.69
2018-09-01T19:26:18.954Z,40.82
2018-09-01T19:28:47.331Z,40.95
2018-09-01T19:31:12.386Z,40.87
2018-09-01T19:33:45.318Z,40.98
2018-09-01T19:36:13.283Z,40.83
2018-09-01T19:38:38.612Z,40.91
2018-09-01T19:41:05.359Z,40.88
2018-09-01T19:43:32.008Z,40.77
2018-09-01T19:45:58.659Z,40.83
2018-09-01T19:48:27.676Z,41.02
2018-09-01T19:50:53.022Z,40.94
2018-09-01T19:53:19.768Z,40.95
2018-09-01T19:55:46.599Z,41.04
2018-09-01T19:58:13.327Z,40.86
2018-09-01T20:00:40.080Z,41.05
2018-09-01T20:03:06.824Z,41.02
2018-09-01T20:05:33.506Z,40.93
2018-09-01T20:08:00.151Z,40.89
2018-09-01T20:10:26.788Z,40.86
2018-09-01T20:12:53.441Z,41.09
2018-09-01T20:15:20.081Z,40.98
2018-09-01T20:17:46.845Z,40.98
2018-09-01T20:20:13.603Z,41.07
2018-09-01T20:22:40.242Z,40.86
2018-09-01T20:25:06.925Z,40.98
2018-09-01T20:27:33.531Z,41.16
2018-09-01T20:30:00.177Z,41.11
2018-09-01T20:32:29.423Z,41.08
2018-09-01T20:34:56.057Z,41.10
2018-09-01T20:37:22.751Z,41.19
2018-09-01T20:39:50.832Z,41.15
2018-09-01T20:42:16.105Z,41.25
2018-09-01T20:44:42.740Z,41.24
2018-09-01T20:47:09.393Z,41.14
2018-09-01T20:49:36.054Z,41.20
2018-09-01T20:52:02.882Z,41.12
2018-09-01T20:54:29.460Z,41.18
2018-09-01T20:56:56.152Z,41.17
2018-09-01T20:59:22.835Z,41.17
2018-09-01T21:01:49.473Z,41.20
2018-09-01T21:04:16.126Z,41.07
2018-09-01T21:06:42.775Z,41.11
2018-09-01T21:09:09.419Z,41.16
2018-09-01T21:11:36.194Z,41.25
2018-09-01T21:14:02.968Z,41.17
2018-09-01T21:16:32.800Z,41.18
2018-09-01T21:18:59.426Z,41.19
2018-09-01T21:21:26.106Z,41.16
2018-09-01T21:23:52.755Z,41.21
2018-09-01T21:26:19.528Z,41.08
2018-09-01T21:28:46.164Z,41.06
2018-09-01T21:31:14.195Z,41.13
2018-09-01T21:33:39.523Z,41.09
2018-09-01T21:36:06.165Z,41.05
2018-09-01T21:38:32.864Z,40.97
2018-09-01T21:41:00.933Z,40.96
2018-09-01T21:43:27.553Z,41.12
2018-09-01T21:45:55.095Z,41.04
2018-09-01T21:48:19.556Z,41.02
2018-09-01T21:50:46.234Z,40.92
2018-09-01T21:53:12.918Z,40.89
2018-09-01T21:55:39.557Z,41.03
2018-09-01T21:58:06.278Z,41.03
2018-09-01T22:00:32.972Z,41.10
2018-09-01T22:02:59.749Z,40.97
2018-09-01T22:05:26.367Z,41.15
2018-09-01T22:07:53.087Z,41.06
2018-09-01T22:10:19.750Z,41.00
2018-09-01T22:12:46.401Z,41.01
2018-09-01T22:15:13.039Z,40.99
2018-09-01T22:17:39.740Z,40.95
2018-09-01T22:20:06.384Z,40.96
2018-09-01T22:22:33.020Z,40.92
2018-09-01T22:24:59.795Z,41.02
2018-09-01T22:27:26.489Z,40.97
2018-09-01T22:29:53.210Z,40.98
2018-09-01T22:32:19.917Z,41.07
2018-09-01T22:34:46.650Z,41.12
2018-09-01T22:37:13.282Z,41.06
2018-09-01T22:39:39.920Z,41.01
2018-09-01T22:42:06.643Z,40.91
2018-09-01T22:44:33.362Z,40.86
2018-09-01T22:47:00.014Z,40.95
2018-09-01T22:49:26.749Z,40.97
2018-09-01T22:51:53.486Z,40.97
2018-09-01T22:54:20.264Z,40.86
2018-09-01T22:56:46.889Z,40.93
2018-09-01T22:59:13.530Z,40.82
2018-09-01T23:01:40.169Z,40.93
2018-09-01T23:04:08.344Z,40.76
2018-09-01T23:06:35.256Z,40.92
2018-09-01T23:09:01.991Z,40.85
2018-09-01T23:11:28.652Z,40.88
2018-09-01T23:13:55.303Z,40.72
2018-09-01T23:16:21.950Z,40.89
2018-09-01T23:18:48.586Z,40.94
2018-09-01T23:21:15.234Z,40.91
2018-09-01T23:23:41.917Z,40.89
2018-09-01T23:26:11.982Z,40.92
2018-09-01T23:28:41.511Z,40.87
2018-09-01T23:31:08.155Z,40.91
2018-09-01T23:33:34.865Z,40.98
2018-09-01T23:36:02.743Z,40.95
2018-09-01T23:38:28.093Z,40.80
2018-09-01T23:40:54.740Z,40.92
2018-09-01T23:43:21.385Z,40.90
2018-09-01T23:45:48.022Z,40.84
2018-09-01T23:48:14.662Z,40.81
2018-09-01T23:50:41.296Z,40.91
2018-09-01T23:53:07.936Z,40.86
2018-09-01T23:55:34.610Z,40.85
2018-09-01T23:58:01.209Z,40.83
